Kennetcook, Canada
Current Conditions -  °F | °C
As of 7:00 AM on Sunday 21 Dec 2014 (Local Time) from CYHZ Reporting Station
Overcast Overcast  
Wind Chill: 21°   Ceiling: 2200
Heat Index: 28°   Visibility: 15mi
Dew Point: 23°   Wind: 7mph
Humidity: 80%   Direction: 40°NE
Pressure: 30.32"   Gusts: NA
Location:  45.18°N, 63.72°W
Report Text: CYHZ 211100Z 04006KT 15SM OVC022 M02/M05 A3032 RMK SC8 SLP275
Loading
Personal Weather Stations






























Interactive Weather Map New forecast layout! Learn more

10-Day Weather Forecast

Advertisements
Track Severe Weather on mobile